createdAt,value
2016-04-12T00:02:29.946Z,8
2016-04-12T00:05:47.516Z,8
2016-04-12T00:08:55.223Z,7.9
2016-04-12T00:11:58.106Z,7.9
2016-04-12T00:15:08.880Z,7.9
2016-04-12T00:18:21.747Z,7.9
2016-04-12T00:21:31.163Z,7.9
2016-04-12T00:24:48.688Z,7.9
2016-04-12T00:27:56.586Z,7.9
2016-04-12T00:30:59.233Z,7.9
2016-04-12T00:34:11.895Z,7.9
2016-04-12T00:37:22.981Z,8
2016-04-12T00:40:35.804Z,8
2016-04-12T00:43:53.297Z,8
2016-04-12T00:46:56.102Z,8
2016-04-12T00:50:06.517Z,8
2016-04-12T00:53:21.430Z,8
2016-04-12T00:56:32.457Z,8
2016-04-12T00:59:50.027Z,7.9
2016-04-12T01:02:52.988Z,7.8
2016-04-12T01:06:05.621Z,7.7
2016-04-12T01:09:18.348Z,7.7
2016-04-12T01:12:28.966Z,7.7
2016-04-12T01:15:41.961Z,7.7
2016-04-12T01:18:56.625Z,7.7
2016-04-12T01:21:59.492Z,7.7
2016-04-12T01:25:12.438Z,7.7
2016-04-12T01:28:25.133Z,7.7
2016-04-12T01:31:36.426Z,7.6
2016-04-12T01:34:50.512Z,7.6
2016-04-12T01:37:51.442Z,7.5
2016-04-12T01:41:06.122Z,7.5
2016-04-12T01:44:18.896Z,7.4
2016-04-12T01:47:30.997Z,7.4
2016-04-12T01:50:48.664Z,7.4
2016-04-12T01:53:56.469Z,7.4
2016-04-12T01:56:59.400Z,7.4
2016-04-12T02:00:08.924Z,7.4
2016-04-12T02:03:19.166Z,7.4
2016-04-12T02:06:31.610Z,7.4
2016-04-12T02:09:48.950Z,7.4
2016-04-12T02:12:56.833Z,7.4
2016-04-12T02:15:59.559Z,7.4
2016-04-12T02:19:12.209Z,7.4
2016-04-12T02:22:22.795Z,7.4
2016-04-12T02:25:33.821Z,7.3
2016-04-12T02:28:51.579Z,7.3
2016-04-12T02:31:54.368Z,7.3
2016-04-12T02:35:06.314Z,7.3
2016-04-12T02:38:19.041Z,7.3
2016-04-12T02:41:29.252Z,7.3
2016-04-12T02:44:41.857Z,7.3
2016-04-12T02:47:52.817Z,7.3
2016-04-12T02:51:05.278Z,7.3
2016-04-12T02:54:17.724Z,7.3
2016-04-12T02:57:30.326Z,7.3
2016-04-12T03:00:47.805Z,7.2
2016-04-12T03:03:55.657Z,7.2
2016-04-12T03:06:58.415Z,7.2
2016-04-12T03:10:11.032Z,7.2
2016-04-12T03:13:22.416Z,7.1
2016-04-12T03:16:32.517Z,7.1
2016-04-12T03:19:52.467Z,7
2016-04-12T03:22:55.318Z,7
2016-04-12T03:26:06.373Z,7.1
2016-04-12T03:29:17.083Z,7.1
2016-04-12T03:32:25.873Z,7.1
2016-04-12T03:35:35.899Z,7.1
2016-04-12T03:38:52.877Z,7.2
2016-04-12T03:41:55.619Z,7.2
2016-04-12T03:45:08.315Z,7.2
2016-04-12T03:48:20.869Z,7.3
2016-04-12T03:51:31.424Z,7.4
2016-04-12T03:54:48.748Z,7.4
2016-04-12T03:57:56.552Z,7.4
2016-04-12T04:00:59.374Z,7.4
2016-04-12T04:04:12.100Z,7.3
2016-04-12T04:07:21.607Z,7.4
2016-04-12T04:10:32.304Z,7.4
2016-04-12T04:13:50.065Z,7.5
2016-04-12T04:16:52.900Z,7.5
2016-04-12T04:20:02.331Z,7.5
2016-04-12T04:23:14.886Z,7.5
2016-04-12T04:26:27.534Z,7.6
2016-04-12T04:29:40.311Z,7.6
2016-04-12T04:32:50.647Z,7.6
2016-04-12T04:36:05.701Z,7.6
2016-04-12T04:39:18.397Z,7.6
2016-04-12T04:42:29.624Z,7.6
2016-04-12T04:45:42.198Z,7.6
2016-04-12T04:48:56.768Z,7.6
2016-04-12T04:51:59.479Z,7.7
2016-04-12T04:55:08.347Z,7.7
2016-04-12T04:58:20.932Z,7.7
2016-04-12T05:01:33.769Z,7.8
2016-04-12T05:04:48.092Z,7.8
2016-04-12T05:07:55.819Z,7.9
2016-04-12T05:10:58.681Z,8
2016-04-12T05:14:11.611Z,8.1
2016-04-12T05:17:24.150Z,8.2
2016-04-12T05:20:34.611Z,8.2
2016-04-12T05:23:52.388Z,8.2
2016-04-12T05:26:55.333Z,8.3
2016-04-12T05:30:07.966Z,8.3
2016-04-12T05:33:20.724Z,8.3
2016-04-12T05:36:31.732Z,8.3
2016-04-12T05:39:49.274Z,8.3
2016-04-12T05:42:57.095Z,8.4
2016-04-12T05:45:59.947Z,8.4
2016-04-12T05:49:12.767Z,8.4
2016-04-12T05:52:25.384Z,8.5
2016-04-12T05:55:37.861Z,8.5
2016-04-12T05:58:55.622Z,8.5
2016-04-12T06:01:58.536Z,8.6
2016-04-12T06:05:08.013Z,8.7
2016-04-12T06:08:18.459Z,8.8
2016-04-12T06:11:29.279Z,9
2016-04-12T06:14:39.446Z,9.3
2016-04-12T06:17:57.454Z,9.4
2016-04-12T06:21:00.322Z,9.5
2016-04-12T06:24:11.674Z,9.4
2016-04-12T06:27:21.385Z,9.3
2016-04-12T06:30:34.190Z,9.3
2016-04-12T06:33:48.779Z,9.3
2016-04-12T06:36:56.740Z,9.3
2016-04-12T06:39:59.593Z,9.3
2016-04-12T06:43:12.412Z,9.3
2016-04-12T06:46:25.092Z,9.3
2016-04-12T06:49:37.928Z,9.3
2016-04-12T06:52:53.314Z,9.1
2016-04-12T06:55:56.276Z,9.1
2016-04-12T06:59:05.502Z,9
2016-04-12T07:02:15.791Z,9
2016-04-12T07:05:27.315Z,9.1
2016-04-12T07:08:38.448Z,9.1
2016-04-12T07:11:53.662Z,9.1
2016-04-12T07:14:54.498Z,9.1
2016-04-12T07:18:09.412Z,9.1
2016-04-12T07:21:18.796Z,9.1
2016-04-12T07:24:31.491Z,9.2
2016-04-12T07:27:49.189Z,9.2
2016-04-12T07:30:57.166Z,9.2
2016-04-12T07:33:59.956Z,9.3
2016-04-12T07:37:12.683Z,9.3
2016-04-12T07:40:24.785Z,9.4
2016-04-12T07:43:37.781Z,9.5
2016-04-12T07:46:55.467Z,9.5
2016-04-12T07:49:58.464Z,9.6
2016-04-12T07:53:08.231Z,9.7
2016-04-12T07:56:20.382Z,9.8
2016-04-12T07:59:30.760Z,9.9
2016-04-12T08:02:40.649Z,10
2016-04-12T08:05:53.570Z,10.1
2016-04-12T08:09:03.975Z,10.1
2016-04-12T08:12:13.828Z,10.2
2016-04-12T08:15:26.888Z,10.2
2016-04-12T08:18:39.802Z,10.2
2016-04-12T08:21:57.735Z,10.2
2016-04-12T08:25:00.805Z,10.2
2016-04-12T08:28:13.719Z,10.3
2016-04-12T08:31:26.602Z,10.3
2016-04-12T08:34:39.407Z,10.2
2016-04-12T08:37:57.106Z,10.1
2016-04-12T08:41:00.161Z,10.1
2016-04-12T08:44:11.466Z,10.1
2016-04-12T08:47:24.239Z,10.1
2016-04-12T08:50:37.091Z,10.2
2016-04-12T08:53:54.883Z,10.2
2016-04-12T08:56:57.985Z,10.2
2016-04-12T09:00:08.868Z,10.2
2016-04-12T09:03:23.923Z,10.2
2016-04-12T09:06:35.087Z,10.3
2016-04-12T09:09:52.837Z,10.3
2016-04-12T09:12:55.923Z,10.3
2016-04-12T09:16:06.541Z,10.3
2016-04-12T09:19:16.346Z,10.4
2016-04-12T09:22:29.057Z,10.4
2016-04-12T09:25:41.159Z,10.4
2016-04-12T09:28:53.826Z,10.3
2016-04-12T09:32:04.224Z,10.3
2016-04-12T09:35:16.968Z,10.3
2016-04-12T09:38:29.662Z,10.2
2016-04-12T09:41:39.437Z,10.2
2016-04-12T09:44:54.884Z,10.2
2016-04-12T09:47:57.892Z,10.3
2016-04-12T09:51:07.650Z,10.3
2016-04-12T09:54:20.644Z,10.3
2016-04-12T09:57:31.760Z,10.5
2016-04-12T10:00:49.491Z,10.6
2016-04-12T10:03:57.514Z,10.7
2016-04-12T10:07:00.679Z,10.7
2016-04-12T10:10:12.967Z,10.7
2016-04-12T10:13:23.647Z,10.8
2016-04-12T10:16:38.797Z,10.9
2016-04-12T10:19:56.603Z,10.9
2016-04-12T10:22:59.784Z,11
2016-04-12T10:26:12.557Z,11.1
2016-04-12T10:29:25.534Z,11.1
2016-04-12T10:32:36.323Z,11.2
2016-04-12T10:35:52.835Z,11.3
2016-04-12T10:38:56.061Z,11.5
2016-04-12T10:42:09.116Z,11.5
2016-04-12T10:45:22.140Z,11.6
2016-04-12T10:48:33.929Z,11.7
2016-04-12T10:51:51.550Z,11.8
2016-04-12T10:54:54.745Z,11.8
2016-04-12T10:58:07.768Z,11.9
2016-04-12T11:01:20.698Z,12
2016-04-12T11:04:32.925Z,12.2
2016-04-12T11:07:50.717Z,12.3
2016-04-12T11:10:54.037Z,12.3
2016-04-12T11:14:07.062Z,12.4
2016-04-12T11:17:20.100Z,12.5
2016-04-12T11:20:33.296Z,12.8
2016-04-12T11:23:51.464Z,13
2016-04-12T11:26:54.830Z,13.3
2016-04-12T11:30:07.527Z,13.5
2016-04-12T11:33:20.597Z,13.5
2016-04-12T11:36:33.668Z,13.6
2016-04-12T11:39:51.397Z,13.6
2016-04-12T11:42:54.873Z,13.7
2016-04-12T11:46:07.850Z,13.7
2016-04-12T11:49:18.359Z,13.7
2016-04-12T11:52:31.616Z,13.7
2016-04-12T11:55:49.141Z,13.6
2016-04-12T11:58:57.417Z,13.6
2016-04-12T12:02:00.613Z,13.5
2016-04-12T12:05:13.824Z,13.4
2016-04-12T12:08:26.848Z,13.2
2016-04-12T12:11:39.917Z,13.1
2016-04-12T12:14:53.022Z,13.1
2016-04-12T12:18:03.828Z,12.9
2016-04-12T12:21:16.914Z,12.8
2016-04-12T12:24:28.141Z,12.7
2016-04-12T12:27:48.102Z,12.6
2016-04-12T12:30:56.300Z,12.6
2016-04-12T12:33:59.683Z,12.6
2016-04-12T12:37:10.363Z,12.6
2016-04-12T12:40:21.340Z,12.6
2016-04-12T12:43:36.567Z,12.6
2016-04-12T12:46:53.121Z,12.7
2016-04-12T12:49:56.553Z,12.7
2016-04-12T12:53:09.671Z,12.8
2016-04-12T12:56:22.805Z,12.8
2016-04-12T12:59:32.578Z,12.8
2016-04-12T13:02:50.586Z,12.7
2016-04-12T13:05:53.876Z,12.7
2016-04-12T13:09:06.920Z,12.8
2016-04-12T13:12:17.585Z,12.9
2016-04-12T13:15:30.562Z,13.1
2016-04-12T13:18:48.773Z,13.2
2016-04-12T13:21:57.096Z,13.3
2016-04-12T13:25:00.542Z,13.4
2016-04-12T13:28:10.878Z,13.5
2016-04-12T13:31:21.917Z,13.6
2016-04-12T13:34:34.956Z,13.6
2016-04-12T13:37:52.886Z,13.6
2016-04-12T13:40:56.241Z,13.6
2016-04-12T13:44:06.878Z,13.6
2016-04-12T13:47:17.360Z,13.5
2016-04-12T13:50:27.430Z,13.5
2016-04-12T13:53:39.954Z,13.5
2016-04-12T13:56:54.852Z,13.4
2016-04-12T13:59:56.142Z,13.4
2016-04-12T14:03:11.403Z,13.5
2016-04-12T14:06:24.740Z,13.5
2016-04-12T14:09:37.887Z,13.5
2016-04-12T14:12:55.756Z,13.5
2016-04-12T14:15:57.075Z,13.5
2016-04-12T14:19:12.180Z,13.6
2016-04-12T14:22:25.438Z,13.7
2016-04-12T14:25:38.071Z,13.6
2016-04-12T14:28:53.704Z,13.7
2016-04-12T14:31:57.057Z,13.7
2016-04-12T14:35:07.661Z,13.7
2016-04-12T14:38:20.340Z,13.7
2016-04-12T14:41:31.943Z,13.7
2016-04-12T14:44:50.044Z,13.8
2016-04-12T14:47:53.474Z,13.8
2016-04-12T14:51:06.047Z,13.8
2016-04-12T14:54:19.352Z,13.7
2016-04-12T14:57:32.563Z,13.6
2016-04-12T15:00:50.682Z,13.5
2016-04-12T15:03:54.018Z,13.5
2016-04-12T15:07:05.606Z,13.5
2016-04-12T15:10:16.317Z,13.5
2016-04-12T15:13:29.435Z,13.5
2016-04-12T15:16:39.505Z,13.5
2016-04-12T15:19:55.935Z,13.5
2016-04-12T15:22:59.196Z,13.5
2016-04-12T15:26:12.204Z,13.3
2016-04-12T15:29:25.024Z,13.1
2016-04-12T15:32:38.190Z,13.1
2016-04-12T15:35:56.166Z,12.9
2016-04-12T15:38:59.661Z,12.9
2016-04-12T15:42:10.387Z,13
2016-04-12T15:45:23.396Z,13
2016-04-12T15:48:36.294Z,12.9
2016-04-12T15:51:54.427Z,12.8
2016-04-12T15:54:57.811Z,12.7
2016-04-12T15:58:07.072Z,12.5
2016-04-12T16:01:20.001Z,12.5
2016-04-12T16:04:31.166Z,12.4
2016-04-12T16:07:42.721Z,12.3
2016-04-12T16:10:55.729Z,12.2
2016-04-12T16:14:07.177Z,12.2
2016-04-12T16:17:20.373Z,12.1
2016-04-12T16:20:30.818Z,12
2016-04-12T16:23:48.607Z,12
2016-04-12T16:26:56.960Z,12
2016-04-12T16:30:00.017Z,11.9
2016-04-12T16:33:12.415Z,11.9
2016-04-12T16:36:25.455Z,11.8
2016-04-12T16:39:38.432Z,11.7
2016-04-12T16:42:56.470Z,11.7
2016-04-12T16:45:59.966Z,11.7
2016-04-12T16:49:11.717Z,11.6
2016-04-12T16:52:25.003Z,11.6
2016-04-12T16:55:35.894Z,11.6
2016-04-12T16:58:51.727Z,11.6
2016-04-12T17:01:55.080Z,11.6
2016-04-12T17:05:08.261Z,11.5
2016-04-12T17:08:20.526Z,11.5
2016-04-12T17:11:33.051Z,11.4
2016-04-12T17:14:51.076Z,11.4
2016-04-12T17:17:54.302Z,11.4
2016-04-12T17:21:07.282Z,11.3
2016-04-12T17:24:19.728Z,11.2
2016-04-12T17:27:32.799Z,11.2
2016-04-12T17:30:48.697Z,11.1
2016-04-12T17:33:56.784Z,11
2016-04-12T17:36:59.932Z,11
2016-04-12T17:40:10.974Z,11
2016-04-12T17:43:22.169Z,10.9
2016-04-12T17:46:35.083Z,10.8
2016-04-12T17:49:53.014Z,10.7
2016-04-12T17:52:55.882Z,10.6
2016-04-12T17:56:06.610Z,10.5
2016-04-12T17:59:21.306Z,10.4
2016-04-12T18:02:34.314Z,10.4
2016-04-12T18:05:50.354Z,10.3
2016-04-12T18:08:58.377Z,10.1
2016-04-12T18:12:01.494Z,10
2016-04-12T18:15:11.975Z,10
2016-04-12T18:18:21.919Z,9.9
2016-04-12T18:21:31.599Z,9.8
2016-04-12T18:24:42.108Z,9.8
2016-04-12T18:27:54.991Z,9.7
2016-04-12T18:31:04.486Z,9.6
2016-04-12T18:34:17.448Z,9.6
2016-04-12T18:37:27.409Z,9.5
2016-04-12T18:40:40.229Z,9.5
2016-04-12T18:43:56.408Z,9.4
2016-04-12T18:46:59.369Z,9.3
2016-04-12T18:50:10.646Z,9.3
2016-04-12T18:53:23.388Z,9.2
2016-04-12T18:56:36.272Z,9.2
2016-04-12T18:59:54.046Z,9.2
2016-04-12T19:02:57.023Z,9.1
2016-04-12T19:06:09.956Z,9
2016-04-12T19:09:22.245Z,8.9
2016-04-12T19:12:34.878Z,8.8
2016-04-12T19:15:52.558Z,8.7
2016-04-12T19:18:55.394Z,8.6
2016-04-12T19:22:05.139Z,8.5
2016-04-12T19:25:17.850Z,8.5
2016-04-12T19:28:28.561Z,8.4
2016-04-12T19:31:43.507Z,8.3
2016-04-12T19:34:56.140Z,8.2
2016-04-12T19:38:08.947Z,8.2
2016-04-12T19:41:21.767Z,8.1
2016-04-12T19:44:34.558Z,8
2016-04-12T19:47:50.784Z,8
2016-04-12T19:50:53.495Z,7.9
2016-04-12T19:54:06.113Z,7.9
2016-04-12T19:57:18.921Z,7.9
2016-04-12T20:00:31.694Z,7.9
2016-04-12T20:03:49.265Z,7.8
2016-04-12T20:06:57.070Z,7.8
2016-04-12T20:09:57.518Z,7.8
2016-04-12T20:13:12.327Z,7.7
2016-04-12T20:16:25.038Z,7.7
2016-04-12T20:19:37.859Z,7.6
2016-04-12T20:22:54.038Z,7.6
2016-04-12T20:25:56.921Z,7.6
2016-04-12T20:29:08.023Z,7.5
2016-04-12T20:32:20.269Z,7.5
2016-04-12T20:35:32.839Z,7.4
2016-04-12T20:38:42.519Z,7.4
2016-04-12T20:41:54.808Z,7.4
2016-04-12T20:45:07.114Z,7.3
2016-04-12T20:48:19.468Z,7.3
2016-04-12T20:51:29.710Z,7.3
2016-04-12T20:54:42.328Z,7.2
2016-04-12T20:57:55.226Z,7.2
2016-04-12T21:01:07.953Z,7.1
2016-04-12T21:04:20.261Z,7.1
2016-04-12T21:07:32.988Z,7.1
2016-04-12T21:10:50.589Z,7
2016-04-12T21:13:58.300Z,6.9
2016-04-12T21:17:00.919Z,6.9
2016-04-12T21:20:11.523Z,6.9
2016-04-12T21:23:26.281Z,6.9
2016-04-12T21:26:36.632Z,6.8
2016-04-12T21:29:53.937Z,6.8
2016-04-12T21:32:56.680Z,6.7
2016-04-12T21:36:09.031Z,6.7
2016-04-12T21:39:18.637Z,6.7
2016-04-12T21:42:31.207Z,6.7
2016-04-12T21:45:43.591Z,6.6
2016-04-12T21:48:54.130Z,6.6
2016-04-12T21:52:06.841Z,6.5
2016-04-12T21:55:19.320Z,6.5
2016-04-12T21:58:29.032Z,6.5
2016-04-12T22:01:38.555Z,6.4
2016-04-12T22:04:53.267Z,6.4
2016-04-12T22:07:55.946Z,6.5
2016-04-12T22:11:04.970Z,6.5
2016-04-12T22:14:14.606Z,6.5
2016-04-12T22:17:27.019Z,6.4
2016-04-12T22:20:39.419Z,6.4
2016-04-12T22:23:56.723Z,6.4
2016-04-12T22:26:59.341Z,6.4
2016-04-12T22:30:11.943Z,6.3
2016-04-12T22:33:22.500Z,6.3
2016-04-12T22:36:37.023Z,6.3
2016-04-12T22:39:52.704Z,6.4
2016-04-12T22:42:55.305Z,6.4
2016-04-12T22:46:06.829Z,6.4
2016-04-12T22:49:16.888Z,6.4
2016-04-12T22:52:29.427Z,6.5
2016-04-12T22:55:42.029Z,6.6
2016-04-12T22:58:54.638Z,6.6
2016-04-12T23:02:07.349Z,6.6
2016-04-12T23:05:18.299Z,6.6
2016-04-12T23:08:28.404Z,6.5
2016-04-12T23:11:39.569Z,6.4
2016-04-12T23:14:53.842Z,6.4
2016-04-12T23:17:56.350Z,6.3
2016-04-12T23:21:06.140Z,6.3
2016-04-12T23:24:16.991Z,6.3
2016-04-12T23:27:29.643Z,6.3
2016-04-12T23:30:42.088Z,6.3
2016-04-12T23:33:54.659Z,6.3
2016-04-12T23:37:07.151Z,6.3
2016-04-12T23:40:18.853Z,6.3
2016-04-12T23:43:31.051Z,6.2
2016-04-12T23:46:39.684Z,6.2
2016-04-12T23:49:56.942Z,6.2
2016-04-12T23:52:59.513Z,6.1
2016-04-12T23:56:09.786Z,6.1
2016-04-12T23:59:24.329Z,6.1
